createdAt,value
2023-04-25T00:01:58.953Z,12.40
2023-04-25T00:04:28.079Z,14.20
2023-04-25T00:06:56.677Z,14.17
2023-04-25T00:09:24.881Z,8.43
2023-04-25T00:11:54.458Z,12.13
2023-04-25T00:14:22.623Z,9.63
2023-04-25T00:16:52.726Z,11.37
2023-04-25T00:19:20.926Z,12.10
2023-04-25T00:21:49.102Z,11.17
2023-04-25T00:24:17.283Z,8.77
2023-04-25T00:26:45.481Z,14.80
2023-04-25T00:29:14.982Z,11.40
2023-04-25T00:31:43.253Z,9.23
2023-04-25T00:34:11.555Z,7.57
2023-04-25T00:36:40.007Z,12.33
2023-04-25T00:39:08.678Z,9.83
2023-04-25T00:41:37.302Z,11.80
2023-04-25T00:44:07.810Z,10.03
2023-04-25T00:46:38.170Z,8.53
2023-04-25T00:49:06.425Z,12.83
2023-04-25T00:51:35.817Z,11.50
2023-04-25T00:54:04.413Z,10.73
2023-04-25T00:56:32.692Z,8.97
2023-04-25T00:59:00.980Z,10.97
2023-04-25T01:01:29.323Z,8.80
2023-04-25T01:03:59.270Z,17.60
2023-04-25T01:06:28.235Z,12.27
2023-04-25T01:08:56.591Z,12.83
2023-04-25T01:11:24.758Z,11.07
2023-04-25T01:13:53.184Z,11.67
2023-04-25T01:16:21.867Z,10.33
2023-04-25T01:18:51.630Z,10.37
2023-04-25T01:21:21.570Z,11.40
2023-04-25T01:23:50.033Z,12.63
2023-04-25T01:26:18.357Z,19.13
2023-04-25T01:28:46.599Z,12.27
2023-04-25T01:31:14.877Z,9.73
2023-04-25T01:33:43.210Z,15.57
2023-04-25T01:36:11.770Z,10.50
2023-04-25T01:38:41.647Z,13.23
2023-04-25T01:41:10.155Z,12.50
2023-04-25T01:43:38.327Z,11.80
2023-04-25T01:46:06.762Z,10.53
2023-04-25T01:48:35.020Z,8.63
2023-04-25T01:51:03.187Z,11.07
2023-04-25T01:53:31.451Z,15.57
2023-04-25T01:56:00.935Z,13.70
2023-04-25T01:58:29.139Z,11.53
2023-04-25T02:00:57.328Z,11.40
2023-04-25T02:03:25.732Z,11.97
2023-04-25T02:05:54.099Z,10.20
2023-04-25T02:08:22.270Z,13.60
2023-04-25T02:10:50.453Z,16.20
2023-04-25T02:13:19.986Z,22.10
2023-04-25T02:15:48.213Z,9.80
2023-04-25T02:18:17.400Z,10.37
2023-04-25T02:20:46.105Z,14.03
2023-04-25T02:23:16.237Z,13.10
2023-04-25T02:25:44.445Z,14.03
2023-04-25T02:28:12.615Z,17.67
2023-04-25T02:30:42.160Z,16.73
2023-04-25T02:33:10.359Z,20.93
2023-04-25T02:35:38.568Z,12.47
2023-04-25T02:38:06.863Z,17.90
2023-04-25T02:40:35.066Z,19.43
2023-04-25T02:43:03.259Z,13.87
2023-04-25T02:45:31.429Z,14.33
2023-04-25T02:48:01.074Z,13.77
2023-04-25T02:50:29.267Z,20.93
2023-04-25T02:52:57.404Z,12.93
2023-04-25T02:55:27.873Z,17.20
2023-04-25T02:57:57.243Z,13.43
2023-04-25T03:00:25.456Z,16.03
2023-04-25T03:02:53.664Z,14.70
2023-04-25T03:05:23.270Z,11.17
2023-04-25T03:07:51.430Z,13.67
2023-04-25T03:10:19.641Z,20.63
2023-04-25T03:12:47.907Z,15.73
2023-04-25T03:15:17.638Z,13.37
2023-04-25T03:17:45.948Z,10.20
2023-04-25T03:20:14.502Z,19.90
2023-04-25T03:22:44.178Z,12.40
2023-04-25T03:25:12.326Z,17.00
2023-04-25T03:27:40.493Z,18.07
2023-04-25T03:30:09.527Z,13.93
2023-04-25T03:32:37.794Z,11.90
2023-04-25T03:35:06.821Z,19.73
2023-04-25T03:37:35.127Z,13.43
2023-04-25T03:40:05.084Z,17.60
2023-04-25T03:42:33.266Z,10.57
2023-04-25T03:45:01.507Z,13.77
2023-04-25T03:47:29.872Z,15.27
2023-04-25T03:49:58.057Z,18.67
2023-04-25T03:52:26.285Z,13.50
2023-04-25T03:54:54.428Z,15.93
2023-04-25T03:57:23.905Z,14.80
2023-04-25T03:59:52.066Z,14.77
2023-04-25T04:02:20.471Z,20.87
2023-04-25T04:04:49.004Z,13.97
2023-04-25T04:07:17.327Z,12.27
2023-04-25T04:09:45.487Z,14.53
2023-04-25T04:12:13.633Z,16.80
2023-04-25T04:14:43.134Z,13.13
2023-04-25T04:17:11.470Z,14.30
2023-04-25T04:19:39.679Z,15.27
2023-04-25T04:22:07.836Z,15.40
2023-04-25T04:24:36.132Z,13.67
2023-04-25T04:27:05.068Z,12.10
2023-04-25T04:29:33.237Z,14.80
2023-04-25T04:32:03.261Z,12.83
2023-04-25T04:34:31.917Z,8.97
2023-04-25T04:37:00.084Z,15.60
2023-04-25T04:39:28.225Z,21.70
2023-04-25T04:41:56.374Z,12.10
2023-04-25T04:44:24.541Z,16.30
2023-04-25T04:46:52.800Z,17.73
2023-04-25T04:49:22.462Z,12.10
2023-04-25T04:51:50.772Z,10.83
2023-04-25T04:54:18.957Z,15.13
2023-04-25T04:56:47.170Z,23.50
2023-04-25T04:59:15.340Z,11.33
2023-04-25T05:01:43.519Z,17.60
2023-04-25T05:04:11.859Z,14.90
2023-04-25T05:06:41.538Z,12.70
2023-04-25T05:09:09.669Z,17.83
2023-04-25T05:11:37.855Z,13.00
2023-04-25T05:14:06.044Z,16.57
2023-04-25T05:16:34.336Z,19.00
2023-04-25T05:19:02.559Z,12.90
2023-04-25T05:21:30.738Z,17.00
2023-04-25T05:24:00.604Z,13.47
2023-04-25T05:26:31.849Z,14.73
2023-04-25T05:29:00.728Z,15.20
2023-04-25T05:31:29.116Z,12.80
2023-04-25T05:33:57.354Z,13.80
2023-04-25T05:36:25.528Z,13.47
2023-04-25T05:38:53.785Z,13.10
2023-04-25T05:41:23.313Z,19.13
2023-04-25T05:43:51.888Z,12.83
2023-04-25T05:46:20.929Z,13.13
2023-04-25T05:48:49.151Z,16.23
2023-04-25T05:51:17.322Z,12.67
2023-04-25T05:53:45.457Z,17.50
2023-04-25T05:56:14.261Z,13.33
2023-04-25T05:58:43.805Z,15.30
2023-04-25T06:01:11.958Z,17.87
2023-04-25T06:03:40.462Z,17.60
2023-04-25T06:06:08.889Z,13.60
2023-04-25T06:08:37.175Z,14.57
2023-04-25T06:11:05.420Z,18.63
2023-04-25T06:13:33.557Z,10.60
2023-04-25T06:16:03.110Z,13.70
2023-04-25T06:18:31.309Z,15.40
2023-04-25T06:20:59.480Z,13.53
2023-04-25T06:23:27.654Z,14.83
2023-04-25T06:25:55.831Z,11.70
2023-04-25T06:28:25.282Z,15.50
2023-04-25T06:30:53.508Z,10.37
2023-04-25T06:33:23.219Z,12.57
2023-04-25T06:35:51.408Z,12.77
2023-04-25T06:38:19.597Z,9.03
2023-04-25T06:40:48.151Z,10.77
2023-04-25T06:43:16.308Z,23.77
2023-04-25T06:45:46.365Z,13.60
2023-04-25T06:48:16.502Z,16.07
2023-04-25T06:50:46.142Z,13.77
2023-04-25T06:53:14.318Z,18.30
2023-04-25T06:55:42.491Z,10.90
2023-04-25T06:58:10.668Z,7.80
2023-04-25T07:00:38.860Z,19.63
2023-04-25T07:03:07.241Z,13.40
2023-04-25T07:05:35.476Z,9.63
2023-04-25T07:08:05.000Z,16.40
2023-04-25T07:10:33.184Z,11.33
2023-04-25T07:13:01.388Z,13.10
2023-04-25T07:15:29.571Z,12.77
2023-04-25T07:17:57.781Z,11.57
2023-04-25T07:20:25.995Z,10.27
2023-04-25T07:22:54.177Z,7.27
2023-04-25T07:25:23.712Z,10.37
2023-04-25T07:27:51.901Z,16.50
2023-04-25T07:30:20.074Z,10.70
2023-04-25T07:32:48.226Z,13.27
2023-04-25T07:35:16.422Z,14.70
2023-04-25T07:37:44.597Z,14.27
2023-04-25T07:40:13.196Z,11.47
2023-04-25T07:42:42.723Z,11.83
2023-04-25T07:45:11.221Z,11.30
2023-04-25T07:47:40.052Z,16.53
2023-04-25T07:50:08.889Z,12.50
2023-04-25T07:52:37.041Z,12.67
2023-04-25T07:55:05.418Z,16.90
2023-04-25T07:57:33.619Z,11.37
2023-04-25T08:00:03.122Z,9.70
2023-04-25T08:02:31.404Z,14.90
2023-04-25T08:04:59.694Z,11.23
2023-04-25T08:07:27.946Z,13.20
2023-04-25T08:09:56.646Z,16.40
2023-04-25T08:12:24.790Z,12.87
2023-04-25T08:14:52.939Z,11.77
2023-04-25T08:17:22.463Z,11.00
2023-04-25T08:19:50.758Z,9.70
2023-04-25T08:22:18.995Z,10.53
2023-04-25T08:24:47.160Z,10.07
2023-04-25T08:27:15.407Z,11.37
2023-04-25T08:29:44.153Z,10.60
2023-04-25T08:32:12.461Z,11.27
2023-04-25T08:34:43.258Z,10.67
2023-04-25T08:37:11.725Z,8.10
2023-04-25T08:39:40.188Z,12.67
2023-04-25T08:42:09.598Z,7.63
2023-04-25T08:44:37.860Z,8.37
2023-04-25T08:47:06.705Z,8.97
2023-04-25T08:49:35.357Z,9.37
2023-04-25T08:52:06.639Z,7.50
2023-04-25T08:54:37.294Z,12.83
2023-04-25T09:00:35.522Z,10.10
2023-04-25T09:03:04.394Z,9.47
2023-04-25T09:05:32.824Z,6.10
2023-04-25T09:08:02.895Z,6.73
2023-04-25T09:13:07.297Z,12.07
2023-04-25T09:15:35.634Z,11.30
2023-04-25T09:18:03.939Z,10.00
2023-04-25T09:20:35.181Z,7.30
2023-04-25T09:23:05.958Z,9.40
2023-04-25T09:25:37.671Z,8.60
2023-04-25T09:28:06.515Z,7.17
2023-04-25T09:30:35.598Z,6.87
2023-04-25T09:33:07.944Z,6.10
2023-04-25T09:35:39.928Z,7.20
2023-04-25T09:38:13.635Z,7.60
2023-04-25T09:40:43.878Z,11.30
2023-04-25T09:43:21.068Z,9.37
2023-04-25T09:45:49.445Z,5.93
2023-04-25T09:48:21.556Z,5.47
2023-04-25T09:51:06.086Z,9.57
2023-04-25T09:53:36.266Z,6.97
2023-04-25T09:56:06.324Z,10.50
2023-04-25T09:58:34.682Z,11.43
2023-04-25T10:01:04.074Z,6.90
2023-04-25T10:03:33.417Z,10.83
2023-04-25T10:06:03.254Z,5.40
2023-04-25T10:08:33.985Z,9.07
2023-04-25T10:11:04.833Z,9.03
2023-04-25T10:13:33.948Z,9.27
2023-04-25T10:16:02.589Z,6.97
2023-04-25T10:18:31.483Z,7.60
2023-04-25T10:21:00.860Z,7.63
2023-04-25T10:23:30.264Z,8.57
2023-04-25T10:25:58.585Z,12.40
2023-04-25T10:28:29.301Z,10.67
2023-04-25T10:31:01.324Z,9.60
2023-04-25T10:33:35.520Z,10.50
2023-04-25T10:36:11.326Z,8.97
2023-04-25T10:38:39.744Z,8.70
2023-04-25T10:41:09.312Z,6.83
2023-04-25T10:43:42.226Z,8.17
2023-04-25T10:46:20.310Z,10.70
2023-04-25T10:48:50.038Z,7.57
2023-04-25T10:51:22.938Z,7.83
2023-04-25T10:53:59.738Z,9.13
2023-04-25T10:56:28.671Z,7.53
2023-04-25T10:59:07.658Z,9.20
2023-04-25T11:01:39.216Z,6.27
2023-04-25T11:04:07.885Z,12.97
2023-04-25T11:06:40.321Z,11.83
2023-04-25T11:09:14.399Z,10.20
2023-04-25T11:11:42.661Z,10.47
2023-04-25T11:14:12.196Z,6.87
2023-04-25T11:16:40.459Z,11.20
2023-04-25T11:19:08.689Z,8.20
2023-04-25T11:21:36.841Z,5.10
2023-04-25T11:24:06.789Z,8.17
2023-04-25T11:26:35.086Z,7.83
2023-04-25T11:29:03.767Z,11.83
2023-04-25T11:31:33.307Z,9.40
2023-04-25T11:34:01.911Z,7.97
2023-04-25T11:36:30.087Z,5.97
2023-04-25T11:38:58.371Z,8.40
2023-04-25T11:41:28.298Z,6.53
2023-04-25T11:43:56.890Z,10.17
2023-04-25T11:46:25.156Z,8.00
2023-04-25T11:48:58.393Z,9.00
2023-04-25T11:51:27.119Z,8.70
2023-04-25T11:53:55.432Z,6.00
2023-04-25T11:56:23.628Z,5.97
2023-04-25T11:58:58.939Z,3.33
2023-04-25T12:01:31.876Z,7.83
2023-04-25T12:04:15.578Z,7.63
2023-04-25T12:06:44.492Z,8.50
2023-04-25T12:09:14.097Z,7.27
2023-04-25T12:11:45.811Z,6.50
2023-04-25T12:14:14.223Z,6.40
2023-04-25T12:16:43.527Z,8.20
2023-04-25T12:19:12.538Z,8.03
2023-04-25T12:21:56.640Z,7.63
2023-04-25T12:24:28.267Z,6.37
2023-04-25T12:27:01.046Z,7.63
2023-04-25T12:29:34.888Z,8.13
2023-04-25T12:32:10.645Z,4.80
2023-04-25T12:34:38.836Z,7.43
2023-04-25T12:37:08.473Z,5.80
2023-04-25T12:39:36.691Z,9.23
2023-04-25T12:42:06.922Z,7.33
2023-04-25T12:44:37.237Z,7.70
2023-04-25T12:47:06.419Z,4.53
2023-04-25T12:49:34.891Z,7.60
2023-04-25T12:52:03.096Z,5.03
2023-04-25T12:54:32.604Z,8.87
2023-04-25T12:57:03.748Z,8.00
2023-04-25T12:59:32.157Z,6.13
2023-04-25T13:02:00.403Z,3.80
2023-04-25T13:04:28.743Z,5.60
2023-04-25T13:06:57.139Z,9.97
2023-04-25T13:09:25.465Z,5.23
2023-04-25T13:11:57.212Z,5.33
2023-04-25T13:14:26.604Z,3.70
2023-04-25T13:16:55.258Z,6.30
2023-04-25T13:19:23.679Z,5.33
2023-04-25T13:21:52.109Z,4.73
2023-04-25T13:24:20.442Z,6.13
2023-04-25T13:26:48.604Z,6.47
2023-04-25T13:29:18.120Z,9.03
2023-04-25T13:31:46.349Z,3.93
2023-04-25T13:34:14.514Z,4.57
2023-04-25T13:36:42.738Z,6.80
2023-04-25T13:39:12.364Z,5.00
2023-04-25T13:41:40.530Z,3.33
2023-04-25T13:44:08.726Z,3.30
2023-04-25T13:46:46.455Z,2.67
2023-04-25T13:49:15.565Z,5.60
2023-04-25T13:51:44.141Z,3.63
2023-04-25T13:54:12.381Z,6.93
2023-04-25T13:56:42.962Z,6.90
2023-04-25T13:59:11.255Z,5.57
2023-04-25T14:01:41.160Z,9.53
2023-04-25T14:04:09.380Z,7.83
2023-04-25T14:06:37.598Z,3.77
2023-04-25T14:09:07.526Z,3.93
2023-04-25T14:11:35.874Z,7.27
2023-04-25T14:14:04.068Z,5.23
2023-04-25T14:16:33.071Z,3.60
2023-04-25T14:19:02.717Z,6.70
2023-04-25T14:21:33.142Z,7.40
2023-04-25T14:24:01.308Z,5.37
2023-04-25T14:26:29.497Z,4.90
2023-04-25T14:28:57.657Z,6.43
2023-04-25T14:31:25.849Z,7.97
2023-04-25T14:33:55.727Z,5.47
2023-04-25T14:36:28.832Z,8.80
2023-04-25T14:38:57.153Z,6.50
2023-04-25T14:41:25.815Z,4.60
2023-04-25T14:43:54.801Z,6.00
2023-04-25T14:46:30.337Z,5.50
2023-04-25T14:48:58.545Z,4.40
2023-04-25T14:51:28.381Z,5.47
2023-04-25T14:53:56.567Z,3.90
2023-04-25T14:56:24.989Z,5.77
2023-04-25T14:58:53.173Z,6.67
2023-04-25T15:01:22.734Z,9.07
2023-04-25T15:03:52.185Z,6.93
2023-04-25T15:06:20.775Z,7.63
2023-04-25T15:08:50.546Z,3.23
2023-04-25T15:11:18.710Z,11.90
2023-04-25T15:13:46.936Z,4.67
2023-04-25T15:16:15.190Z,7.40
2023-04-25T15:18:43.474Z,5.97
2023-04-25T15:21:11.667Z,4.17
2023-04-25T15:23:40.053Z,5.40
2023-04-25T15:26:09.576Z,5.70
2023-04-25T15:28:37.789Z,6.17
2023-04-25T15:31:06.483Z,6.37
2023-04-25T15:33:34.674Z,6.83
2023-04-25T15:36:04.151Z,4.23
2023-04-25T15:38:32.364Z,5.07
2023-04-25T15:41:00.554Z,7.60
2023-04-25T15:43:30.123Z,8.47
2023-04-25T15:45:58.375Z,4.00
2023-04-25T15:48:26.576Z,10.23
2023-04-25T15:50:54.815Z,3.53
2023-04-25T15:53:23.041Z,7.43
2023-04-25T15:55:51.190Z,6.20
2023-04-25T15:58:19.342Z,4.53
2023-04-25T16:00:51.103Z,5.33
2023-04-25T16:03:19.534Z,8.13
2023-04-25T16:05:48.017Z,7.80
2023-04-25T16:08:16.181Z,5.10
2023-04-25T16:10:44.365Z,7.57
2023-04-25T16:13:12.789Z,6.40
2023-04-25T16:15:41.097Z,4.70
2023-04-25T16:18:10.716Z,5.97
2023-04-25T16:20:38.899Z,6.30
2023-04-25T16:23:07.067Z,5.60
2023-04-25T16:25:35.210Z,3.77
2023-04-25T16:28:03.414Z,4.37
2023-04-25T16:30:31.601Z,4.00
2023-04-25T16:32:59.764Z,8.10
2023-04-25T16:35:32.320Z,13.90
2023-04-25T16:38:00.671Z,3.33
2023-04-25T16:40:29.198Z,6.90
2023-04-25T16:42:57.367Z,7.37
2023-04-25T16:45:26.197Z,7.40
2023-04-25T16:47:54.361Z,10.13
2023-04-25T16:50:22.677Z,8.73
2023-04-25T16:52:52.165Z,4.23
2023-04-25T16:55:20.376Z,3.23
2023-04-25T16:57:48.537Z,6.90
2023-04-25T17:00:18.164Z,4.70
2023-04-25T17:02:47.280Z,3.77
2023-04-25T17:05:15.740Z,5.93
2023-04-25T17:07:43.933Z,5.90
2023-04-25T17:10:13.632Z,5.77
2023-04-25T17:12:41.806Z,4.83
2023-04-25T17:15:10.505Z,4.00
2023-04-25T17:17:38.721Z,5.33
2023-04-25T17:20:07.760Z,4.13
2023-04-25T17:22:36.098Z,4.23
2023-04-25T17:25:04.298Z,4.87
2023-04-25T17:27:33.799Z,5.07
2023-04-25T17:30:03.654Z,3.10
2023-04-25T17:32:32.039Z,5.03
2023-04-25T17:35:00.316Z,5.17
2023-04-25T17:37:28.786Z,6.07
2023-04-25T17:39:57.336Z,3.87
2023-04-25T17:42:25.889Z,7.67
2023-04-25T17:44:55.726Z,8.67
2023-04-25T17:47:24.145Z,4.30
2023-04-25T17:49:52.510Z,3.17
2023-04-25T17:52:20.703Z,3.40
2023-04-25T17:54:49.773Z,3.73
2023-04-25T17:57:18.078Z,5.93
2023-04-25T17:59:46.282Z,4.57
2023-04-25T18:02:16.885Z,5.60
2023-04-25T18:04:45.513Z,7.00
2023-04-25T18:07:13.778Z,6.07
2023-04-25T18:09:41.987Z,5.83
2023-04-25T18:12:10.232Z,6.93
2023-04-25T18:14:38.413Z,4.77
2023-04-25T18:17:07.155Z,7.13
2023-04-25T18:19:36.676Z,6.30
2023-04-25T18:22:04.914Z,3.87
2023-04-25T18:24:33.410Z,4.97
2023-04-25T18:27:05.791Z,5.83
2023-04-25T18:29:34.359Z,3.00
2023-04-25T18:32:04.589Z,5.10
2023-04-25T18:34:33.254Z,5.00
2023-04-25T18:37:02.772Z,2.33
2023-04-25T18:39:30.957Z,4.37
2023-04-25T18:42:05.575Z,5.13
2023-04-25T18:44:39.402Z,11.57
2023-04-25T18:47:07.678Z,13.60
2023-04-25T18:49:35.971Z,2.67
2023-04-25T18:52:05.563Z,8.77
2023-04-25T18:54:33.727Z,4.13
2023-04-25T18:57:01.930Z,4.77
2023-04-25T18:59:30.107Z,3.60
2023-04-25T19:01:58.351Z,5.73
2023-04-25T19:04:26.688Z,7.63
2023-04-25T19:06:55.034Z,10.23
2023-04-25T19:09:24.831Z,5.90
2023-04-25T19:11:53.009Z,4.63
2023-04-25T19:14:21.168Z,5.90
2023-04-25T19:16:49.380Z,5.10
2023-04-25T19:19:17.558Z,3.67
2023-04-25T19:21:45.701Z,5.03
2023-04-25T19:24:14.504Z,7.50
2023-04-25T19:26:44.075Z,4.93
2023-04-25T19:29:14.258Z,5.70
2023-04-25T19:31:43.952Z,4.80
2023-04-25T19:34:12.918Z,5.53
2023-04-25T19:36:41.817Z,3.03
2023-04-25T19:39:10.814Z,5.53
2023-04-25T19:41:39.518Z,6.43
2023-04-25T19:44:09.767Z,4.73
2023-04-25T19:46:38.340Z,4.90
2023-04-25T19:49:07.721Z,4.40
2023-04-25T19:51:36.582Z,2.83
2023-04-25T19:54:04.820Z,7.17
2023-04-25T19:56:33.101Z,7.53
2023-04-25T19:59:01.273Z,4.73
2023-04-25T20:01:31.033Z,3.77
2023-04-25T20:03:59.209Z,3.70
2023-04-25T20:06:27.442Z,4.87
2023-04-25T20:08:55.618Z,9.43
2023-04-25T20:11:23.869Z,7.53
2023-04-25T20:13:52.382Z,4.20
2023-04-25T20:16:21.865Z,4.70
2023-04-25T20:18:53.005Z,5.20
2023-04-25T20:21:21.652Z,6.17
2023-04-25T20:23:49.825Z,3.57
2023-04-25T20:26:18.393Z,5.00
2023-04-25T20:28:46.613Z,6.30
2023-04-25T20:31:14.792Z,6.73
2023-04-25T20:33:43.735Z,3.40
2023-04-25T20:36:15.050Z,9.93
2023-04-25T20:38:43.208Z,7.47
2023-04-25T20:41:11.413Z,5.00
2023-04-25T20:43:40.383Z,5.00
2023-04-25T20:46:08.732Z,5.50
2023-04-25T20:48:36.988Z,3.53
2023-04-25T20:51:07.108Z,8.03
2023-04-25T20:53:36.615Z,3.87
2023-04-25T20:56:06.271Z,9.70
2023-04-25T20:58:34.512Z,5.10
2023-04-25T21:01:03.077Z,8.20
2023-04-25T21:03:31.569Z,5.10
2023-04-25T21:05:59.810Z,6.03
2023-04-25T21:08:28.041Z,6.70
2023-04-25T21:10:57.547Z,3.90
2023-04-25T21:13:27.207Z,4.47
2023-04-25T21:15:55.440Z,6.17
2023-04-25T21:18:23.618Z,5.03
2023-04-25T21:20:51.760Z,5.57
2023-04-25T21:23:20.312Z,7.13
2023-04-25T21:25:50.975Z,5.50
2023-04-25T21:28:20.818Z,7.53
2023-04-25T21:30:49.189Z,7.90
2023-04-25T21:33:17.453Z,8.90
2023-04-25T21:35:45.980Z,4.43
2023-04-25T21:38:15.481Z,6.33
2023-04-25T21:40:43.894Z,4.47
2023-04-25T21:43:12.328Z,9.43
2023-04-25T21:45:59.465Z,6.17
2023-04-25T21:48:30.036Z,11.00
2023-04-25T21:50:58.198Z,5.90
2023-04-25T21:53:26.720Z,7.13
2023-04-25T21:55:54.928Z,5.73
2023-04-25T21:58:23.497Z,8.20
2023-04-25T22:00:53.030Z,6.53
2023-04-25T22:03:21.296Z,8.37
2023-04-25T22:05:49.811Z,8.37
2023-04-25T22:08:18.041Z,6.67
2023-04-25T22:10:46.267Z,5.40
2023-04-25T22:13:15.203Z,5.97
2023-04-25T22:15:43.370Z,6.20
2023-04-25T22:18:14.221Z,7.70
2023-04-25T22:20:44.066Z,9.27
2023-04-25T22:23:12.904Z,6.37
2023-04-25T22:25:41.961Z,6.73
2023-04-25T22:28:10.710Z,6.80
2023-04-25T22:30:38.921Z,6.50
2023-04-25T22:33:07.192Z,3.40
2023-04-25T22:35:36.906Z,6.90
2023-04-25T22:38:05.064Z,6.67
2023-04-25T22:40:33.464Z,8.97
2023-04-25T22:43:02.073Z,6.40
2023-04-25T22:45:30.294Z,6.93
2023-04-25T22:47:58.872Z,7.33
2023-04-25T22:50:27.085Z,3.77
2023-04-25T22:52:56.629Z,5.60
2023-04-25T22:55:26.417Z,7.50
2023-04-25T22:57:54.799Z,5.67
2023-04-25T23:00:26.144Z,8.27
2023-04-25T23:02:54.968Z,5.60
2023-04-25T23:05:24.569Z,7.63
2023-04-25T23:07:52.788Z,9.33
2023-04-25T23:10:22.418Z,6.23
2023-04-25T23:12:50.570Z,5.47
2023-04-25T23:15:19.660Z,6.53
2023-04-25T23:17:47.952Z,6.87
2023-04-25T23:20:16.316Z,5.77
2023-04-25T23:22:44.470Z,6.93
2023-04-25T23:25:12.722Z,3.17
2023-04-25T23:27:43.050Z,8.20
2023-04-25T23:30:11.721Z,7.73
2023-04-25T23:32:40.018Z,4.60
2023-04-25T23:35:08.626Z,4.87
2023-04-25T23:37:37.106Z,8.77
2023-04-25T23:40:08.386Z,11.47
2023-04-25T23:42:36.699Z,7.73
2023-04-25T23:45:06.780Z,5.03
2023-04-25T23:47:35.088Z,3.87
2023-04-25T23:50:03.425Z,6.43
2023-04-25T23:52:31.600Z,3.77
2023-04-25T23:54:59.804Z,4.67
2023-04-25T23:57:27.999Z,5.33
2023-04-25T23:59:56.460Z,7.60
